Time;durP1;ratioP1;P1;durP2;ratioP2;P2;SDS_P1;SDS_P2;PMS_P1;PMS_P2;Temp;Humidity;BMP_temperature;BMP_pressure;BME280_temperature;BME280_humidity;BME280_pressure;Samples;Min_cycle;Max_cycle;Signal;HPM_P1;HPM_P2
2023/03/21 00:01:51;;;;;;;14.90;10.07;;;8.50;99.90;;;;;;5073402;28;20305;-72
2023/03/21 00:04:19;;;;;;;13.90;10.30;;;8.60;99.90;;;;;;5073294;28;20245;-69
2023/03/21 00:06:50;;;;;;;14.07;10.43;;;8.50;99.90;;;;;;5073335;28;20195;-69
2023/03/21 00:09:18;;;;;;;18.10;11.20;;;8.50;99.90;;;;;;5073072;28;20228;-68
2023/03/21 00:11:47;;;;;;;12.97;9.73;;;8.50;99.90;;;;;;5073266;28;20197;-71
2023/03/21 00:14:18;;;;;;;13.03;9.73;;;8.50;99.90;;;;;;5073386;28;20301;-70
2023/03/21 00:16:49;;;;;;;15.97;10.53;;;8.50;99.90;;;;;;5073097;28;20203;-70
2023/03/21 00:19:19;;;;;;;14.40;10.00;;;8.50;99.90;;;;;;5073080;28;20256;-70
2023/03/21 00:21:51;;;;;;;15.60;10.33;;;8.50;99.90;;;;;;5073013;28;20237;-69
2023/03/21 00:24:40;;;;;;;15.87;10.00;;;8.50;99.90;;;;;;5072842;28;21017;-69
2023/03/21 00:27:08;;;;;;;17.47;11.87;;;8.50;99.90;;;;;;5072894;28;20228;-68
2023/03/21 00:29:57;;;;;;;19.20;11.73;;;8.50;99.90;;;;;;5071570;28;20660;-69
2023/03/21 00:32:26;;;;;;;19.13;11.00;;;8.40;99.90;;;;;;5072654;28;20664;-71
2023/03/21 00:34:54;;;;;;;17.20;11.27;;;8.40;99.90;;;;;;5071395;28;20729;-69
2023/03/21 00:37:45;;;;;;;15.77;10.93;;;8.50;99.90;;;;;;5072390;28;20194;-69
2023/03/21 00:40:14;;;;;;;19.13;11.70;;;8.50;99.90;;;;;;5072558;28;20203;-69
2023/03/21 00:42:55;;;;;;;17.03;10.80;;;8.40;99.90;;;;;;5072401;28;20257;-70
2023/03/21 00:45:23;;;;;;;18.13;11.90;;;8.40;99.90;;;;;;5070631;28;20313;-70
2023/03/21 00:47:52;;;;;;;13.97;9.93;;;8.40;99.90;;;;;;5071022;28;20296;-70
2023/03/21 00:50:21;;;;;;;18.93;12.13;;;8.40;99.90;;;;;;5072402;28;20194;-70
2023/03/21 00:52:51;;;;;;;14.70;10.60;;;8.30;99.90;;;;;;5070883;28;20197;-70
2023/03/21 00:55:20;;;;;;;14.90;11.43;;;8.40;99.90;;;;;;5072638;28;20193;-69
2023/03/21 00:57:49;;;;;;;16.83;10.30;;;8.40;99.90;;;;;;5072141;28;20247;-69
2023/03/21 01:00:29;;;;;;;14.97;10.20;;;8.40;99.90;;;;;;5072235;28;20197;-70
2023/03/21 01:03:04;;;;;;;15.30;10.43;;;8.40;99.90;;;;;;5071920;28;20254;-71
2023/03/21 01:06:05;;;;;;;15.90;11.23;;;8.40;99.90;;;;;;5072131;28;20290;-71
2023/03/21 01:08:38;;;;;;;18.20;11.40;;;8.40;99.90;;;;;;5070930;28;20209;-69
2023/03/21 01:11:23;;;;;;;14.80;11.17;;;8.50;99.90;;;;;;5071963;28;20256;-69
2023/03/21 01:13:53;;;;;;;18.60;11.20;;;8.40;99.90;;;;;;5070854;28;20209;-69
2023/03/21 01:16:42;;;;;;;20.60;11.60;;;8.40;99.90;;;;;;5071890;28;20243;-68
2023/03/21 01:19:14;;;;;;;15.53;11.23;;;8.40;99.90;;;;;;5071938;28;20224;-69
2023/03/21 01:21:53;;;;;;;18.77;11.60;;;8.40;99.90;;;;;;5071990;28;20221;-69
2023/03/21 01:24:24;;;;;;;19.80;12.00;;;8.50;99.90;;;;;;5071761;28;20193;-68
2023/03/21 01:26:52;;;;;;;20.37;13.70;;;8.50;99.90;;;;;;5070603;28;20304;-69
2023/03/21 01:29:21;;;;;;;15.90;10.93;;;8.50;99.90;;;;;;5070483;28;20228;-69
2023/03/21 01:31:50;;;;;;;19.80;12.67;;;8.40;99.90;;;;;;5071735;28;20198;-69
2023/03/21 01:34:18;;;;;;;16.23;10.97;;;8.40;99.90;;;;;;5070835;28;20205;-70
2023/03/21 01:36:47;;;;;;;17.17;10.57;;;8.40;99.90;;;;;;5070433;28;20576;-70
2023/03/21 01:39:20;;;;;;;18.17;12.13;;;8.40;99.90;;;;;;5070338;28;20215;-71
2023/03/21 01:41:52;;;;;;;15.97;11.07;;;8.40;99.90;;;;;;5070192;28;20226;-70
2023/03/21 01:44:23;;;;;;;17.23;11.17;;;8.30;99.90;;;;;;5070448;28;20207;-69
2023/03/21 01:46:54;;;;;;;18.17;11.33;;;8.30;99.90;;;;;;5070327;28;20317;-69
2023/03/21 01:49:49;;;;;;;18.67;11.43;;;8.20;99.90;;;;;;5071705;28;20198;-70
2023/03/21 01:52:54;;;;;;;17.17;11.10;;;8.20;99.90;;;;;;5070495;28;20296;-70
2023/03/21 01:55:31;;;;;;;14.60;10.37;;;8.20;99.90;;;;;;5070542;28;20209;-69
2023/03/21 01:58:09;;;;;;;15.30;10.90;;;8.20;99.90;;;;;;5074531;28;20206;-69
2023/03/21 02:00:56;;;;;;;15.30;11.03;;;8.20;99.90;;;;;;5075639;28;20217;-70
2023/03/21 02:03:48;;;;;;;17.87;11.53;;;8.10;99.90;;;;;;5074289;28;20290;-69
2023/03/21 02:06:51;;;;;;;15.40;10.67;;;8.10;99.90;;;;;;5053405;28;20210;-69
2023/03/21 02:09:33;;;;;;;15.33;10.10;;;8.10;99.90;;;;;;5036436;28;20207;-70
2023/03/21 02:12:04;;;;;;;15.30;9.30;;;8.10;99.90;;;;;;5036576;28;20611;-69
2023/03/21 02:14:36;;;;;;;18.47;10.97;;;8.10;99.90;;;;;;5053330;28;20272;-69
2023/03/21 02:17:22;;;;;;;15.10;10.17;;;8.10;99.90;;;;;;5053014;28;20203;-69
2023/03/21 02:20:38;;;;;;;14.93;9.50;;;8.10;99.90;;;;;;5053007;28;20264;-71
2023/03/21 02:23:32;;;;;;;16.10;10.23;;;8.10;99.90;;;;;;4973890;28;20232;-70
2023/03/21 02:26:30;;;;;;;13.93;9.60;;;8.00;99.90;;;;;;4958029;28;20204;-71
2023/03/21 02:29:37;;;;;;;14.20;9.07;;;7.90;99.90;;;;;;4958026;28;20243;-70
2023/03/21 02:32:14;;;;;;;12.87;9.30;;;7.90;99.90;;;;;;4957728;28;20213;-70
2023/03/21 02:35:27;;;;;;;16.27;11.07;;;7.90;99.90;;;;;;4957894;28;20719;-69
2023/03/21 02:38:02;;;;;;;14.53;9.70;;;7.90;99.90;;;;;;4957830;28;20236;-70
2023/03/21 02:40:38;;;;;;;16.27;10.07;;;8.00;99.90;;;;;;4957794;28;20204;-70
2023/03/21 02:43:13;;;;;;;15.53;10.27;;;7.80;99.90;;;;;;4972759;28;20242;-70
2023/03/21 02:45:57;;;;;;;13.47;9.57;;;7.80;99.90;;;;;;4996368;28;20204;-71
2023/03/21 02:48:32;;;;;;;16.30;9.87;;;7.90;99.90;;;;;;4996400;28;20207;-68
2023/03/21 02:51:20;;;;;;;13.50;9.67;;;7.90;99.90;;;;;;4996160;28;20202;-71
2023/03/21 02:53:54;;;;;;;14.47;9.60;;;7.90;99.90;;;;;;4996150;28;20634;-68
2023/03/21 02:56:47;;;;;;;16.77;10.17;;;7.80;99.90;;;;;;4996334;28;20676;-68
2023/03/21 02:59:18;;;;;;;14.83;10.40;;;7.90;99.90;;;;;;5016591;28;20304;-66
2023/03/21 03:01:47;;;;;;;18.10;10.30;;;7.90;99.90;;;;;;5073136;28;20213;-68
2023/03/21 03:04:26;;;;;;;15.53;10.10;;;7.90;99.90;;;;;;5072907;28;20344;-67
2023/03/21 03:07:23;;;;;;;21.20;13.07;;;7.90;99.90;;;;;;5072575;28;20201;-68
2023/03/21 03:10:16;;;;;;;15.53;10.37;;;7.90;99.90;;;;;;5074299;28;20198;-67
2023/03/21 03:12:54;;;;;;;13.17;9.47;;;7.90;99.90;;;;;;5072549;28;20216;-68
2023/03/21 03:15:32;;;;;;;14.50;9.23;;;7.80;99.90;;;;;;5074306;28;20205;-68
2023/03/21 03:18:11;;;;;;;15.40;9.33;;;7.80;99.90;;;;;;5073031;28;20209;-68
2023/03/21 03:20:51;;;;;;;12.93;8.90;;;7.80;99.90;;;;;;5073942;28;20616;-68
2023/03/21 03:23:28;;;;;;;14.10;9.17;;;7.70;99.90;;;;;;5073907;28;20220;-68
2023/03/21 03:26:04;;;;;;;14.10;8.90;;;7.60;99.90;;;;;;5074090;28;20193;-68
2023/03/21 03:28:37;;;;;;;14.77;8.93;;;7.60;99.90;;;;;;5072737;28;20229;-68
2023/03/21 03:31:14;;;;;;;13.37;8.37;;;7.60;99.90;;;;;;5072644;28;20209;-68
2023/03/21 03:33:53;;;;;;;12.27;8.50;;;7.50;99.90;;;;;;5072673;28;20202;-67
2023/03/21 03:36:26;;;;;;;12.77;7.93;;;7.40;99.90;;;;;;5072518;28;20206;-67
2023/03/21 03:39:07;;;;;;;12.33;9.33;;;7.40;99.90;;;;;;5072442;28;20292;-68
2023/03/21 03:41:44;;;;;;;14.23;8.07;;;7.40;99.90;;;;;;5072784;28;20205;-68
2023/03/21 03:44:37;;;;;;;17.97;8.60;;;7.30;99.90;;;;;;5072394;28;20233;-70
2023/03/21 03:47:09;;;;;;;15.90;8.97;;;7.40;99.90;;;;;;5072453;28;20197;-68
2023/03/21 03:49:59;;;;;;;14.30;8.33;;;7.40;99.90;;;;;;5072370;28;20799;-69
2023/03/21 03:52:32;;;;;;;13.83;8.00;;;7.40;99.90;;;;;;5072494;28;20292;-69
2023/03/21 03:55:10;;;;;;;15.03;8.60;;;7.40;99.90;;;;;;5072145;28;20197;-68
2023/03/21 03:57:44;;;;;;;12.00;7.93;;;7.40;99.90;;;;;;5072341;28;20247;-68
2023/03/21 04:00:15;;;;;;;10.87;7.60;;;7.30;99.90;;;;;;5072173;28;20201;-69
2023/03/21 04:02:45;;;;;;;11.00;7.67;;;7.40;99.90;;;;;;5073260;28;20312;-69
2023/03/21 04:05:20;;;;;;;14.97;8.30;;;7.40;99.90;;;;;;5072101;28;20205;-69
2023/03/21 04:07:50;;;;;;;12.77;7.67;;;7.50;99.90;;;;;;5072001;28;20209;-68
2023/03/21 04:10:25;;;;;;;13.47;8.60;;;7.60;99.90;;;;;;5072120;28;20205;-68
2023/03/21 04:12:56;;;;;;;11.87;8.30;;;7.60;99.90;;;;;;5072056;28;20205;-69
2023/03/21 04:15:30;;;;;;;13.30;8.00;;;7.60;99.90;;;;;;5071900;28;20283;-70
2023/03/21 04:18:06;;;;;;;11.30;7.30;;;7.60;99.90;;;;;;5071837;28;20742;-69
2023/03/21 04:20:34;;;;;;;12.83;8.20;;;7.50;99.90;;;;;;5071343;28;20231;-68
2023/03/21 04:23:11;;;;;;;12.23;9.00;;;7.60;99.90;;;;;;5071738;28;20221;-68
2023/03/21 04:25:45;;;;;;;14.53;8.00;;;7.60;99.90;;;;;;5071583;28;20199;-68
2023/03/21 04:28:28;;;;;;;12.33;8.27;;;7.70;99.90;;;;;;5071576;28;20205;-70
2023/03/21 04:31:06;;;;;;;14.23;8.33;;;7.70;99.90;;;;;;5071787;28;20242;-69
2023/03/21 04:33:51;;;;;;;9.93;7.60;;;7.70;99.90;;;;;;5071347;28;20205;-70
2023/03/21 04:36:26;;;;;;;10.27;7.40;;;7.70;99.90;;;;;;5071492;28;20205;-68
2023/03/21 04:39:00;;;;;;;13.73;8.73;;;7.70;99.90;;;;;;5071321;28;20204;-68
2023/03/21 04:41:31;;;;;;;11.53;8.20;;;7.70;99.90;;;;;;5071287;28;20201;-68
2023/03/21 04:44:01;;;;;;;9.57;7.63;;;7.80;99.90;;;;;;5071049;28;20224;-67
2023/03/21 04:46:29;;;;;;;10.27;7.50;;;7.90;99.90;;;;;;5071294;28;20202;-68
2023/03/21 04:48:58;;;;;;;12.87;8.93;;;7.90;99.90;;;;;;5072384;28;20193;-67
2023/03/21 04:51:27;;;;;;;12.10;8.37;;;7.90;99.90;;;;;;5071011;28;20292;-69
2023/03/21 04:53:56;;;;;;;14.43;8.63;;;8.00;99.90;;;;;;5071008;28;20295;-67
2023/03/21 04:56:30;;;;;;;12.77;7.73;;;7.90;99.90;;;;;;5071075;28;20202;-67
2023/03/21 04:59:03;;;;;;;14.43;8.30;;;7.80;99.90;;;;;;5072238;28;20677;-68
2023/03/21 05:01:33;;;;;;;10.00;7.63;;;7.80;99.90;;;;;;5071113;28;20198;-68
2023/03/21 05:04:03;;;;;;;12.60;7.77;;;7.90;99.90;;;;;;5072005;28;20233;-69
2023/03/21 05:06:35;;;;;;;11.00;7.83;;;7.70;99.90;;;;;;5071010;28;20818;-67
2023/03/21 05:09:05;;;;;;;10.03;8.03;;;7.70;99.90;;;;;;5072120;28;20202;-68
2023/03/21 05:11:39;;;;;;;15.40;8.57;;;7.80;99.90;;;;;;5068436;28;20235;-69
2023/03/21 05:14:11;;;;;;;12.93;8.07;;;7.80;99.90;;;;;;5070789;28;20205;-68
2023/03/21 05:16:43;;;;;;;13.03;7.47;;;7.80;99.90;;;;;;5070987;28;20201;-69
2023/03/21 05:19:13;;;;;;;11.63;8.27;;;7.70;99.90;;;;;;5070723;28;20201;-68
2023/03/21 05:21:43;;;;;;;8.67;7.37;;;7.60;99.90;;;;;;5070779;28;20193;-70
2023/03/21 05:24:22;;;;;;;10.07;7.70;;;7.60;99.90;;;;;;5070383;28;20224;-68
2023/03/21 05:26:54;;;;;;;11.07;7.57;;;7.60;99.90;;;;;;5070789;28;20199;-69
2023/03/21 05:29:29;;;;;;;11.40;8.77;;;7.60;99.90;;;;;;5070480;28;20217;-68
2023/03/21 05:32:02;;;;;;;13.80;8.10;;;7.60;99.90;;;;;;5070706;28;20693;-68
2023/03/21 05:34:31;;;;;;;9.27;7.33;;;7.60;99.90;;;;;;5071759;28;20251;-68
2023/03/21 05:37:00;;;;;;;11.60;7.93;;;7.60;99.90;;;;;;5070618;28;20251;-70
2023/03/21 05:39:43;;;;;;;10.03;7.57;;;7.50;99.90;;;;;;5070325;28;20197;-68
2023/03/21 05:42:22;;;;;;;10.60;8.17;;;7.40;99.90;;;;;;5070465;28;20221;-68
2023/03/21 05:44:53;;;;;;;12.13;9.20;;;7.50;99.90;;;;;;5070350;28;20227;-68
2023/03/21 05:47:29;;;;;;;10.50;8.10;;;7.40;99.90;;;;;;5070445;28;20209;-68
2023/03/21 05:50:01;;;;;;;12.13;8.33;;;7.50;99.90;;;;;;5071675;28;20254;-70
2023/03/21 05:52:31;;;;;;;11.23;8.20;;;7.40;99.90;;;;;;5070727;28;20251;-70
2023/03/21 05:55:02;;;;;;;13.97;7.90;;;7.30;99.90;;;;;;5070222;28;20639;-70
2023/03/21 05:57:33;;;;;;;13.17;7.80;;;7.30;99.90;;;;;;5070460;28;20274;-68
2023/03/21 06:00:08;;;;;;;10.83;7.73;;;7.50;99.90;;;;;;5070512;28;20207;-67
2023/03/21 06:02:43;;;;;;;12.30;8.57;;;7.50;99.90;;;;;;5071686;28;20319;-69
2023/03/21 06:05:47;;;;;;;11.73;8.10;;;7.70;99.90;;;;;;5071001;28;20236;-68
2023/03/21 06:08:22;;;;;;;10.67;8.00;;;7.60;99.90;;;;;;5070333;28;20312;-69
2023/03/21 06:10:51;;;;;;;12.00;7.87;;;7.50;99.90;;;;;;5070226;28;20198;-68
2023/03/21 06:13:20;;;;;;;8.13;7.00;;;7.50;99.90;;;;;;5071431;28;20201;-68
2023/03/21 06:15:50;;;;;;;10.73;7.40;;;7.60;99.90;;;;;;5069965;28;20663;-68
2023/03/21 06:18:23;;;;;;;12.00;8.40;;;7.60;99.90;;;;;;5069963;28;20295;-68
2023/03/21 06:21:01;;;;;;;10.63;7.90;;;7.70;99.90;;;;;;5070016;28;20208;-69
2023/03/21 06:23:30;;;;;;;11.50;7.67;;;7.60;99.90;;;;;;5069867;28;20197;-69
2023/03/21 06:25:59;;;;;;;8.40;6.97;;;7.70;99.90;;;;;;5070178;28;20642;-69
2023/03/21 06:28:27;;;;;;;10.33;7.43;;;7.60;99.90;;;;;;5070031;28;20212;-68
2023/03/21 06:30:58;;;;;;;13.43;6.30;;;7.60;99.90;;;;;;5071249;28;20663;-69
2023/03/21 06:33:28;;;;;;;8.90;6.93;;;7.70;99.90;;;;;;5070088;28;20217;-69
2023/03/21 06:35:59;;;;;;;15.63;7.13;;;7.80;99.90;;;;;;5069969;28;20670;-68
2023/03/21 06:38:29;;;;;;;9.00;6.87;;;7.90;99.90;;;;;;5069897;28;20212;-68
2023/03/21 06:40:58;;;;;;;11.90;7.73;;;7.80;99.90;;;;;;5069930;28;20640;-68
2023/03/21 06:43:32;;;;;;;9.60;7.30;;;7.90;99.90;;;;;;5073097;28;20205;-69
2023/03/21 06:46:05;;;;;;;13.47;7.27;;;7.80;99.90;;;;;;5073649;28;20568;-68
2023/03/21 06:48:34;;;;;;;9.57;6.50;;;7.90;99.90;;;;;;5073607;28;20213;-68
2023/03/21 06:51:03;;;;;;;9.07;6.97;;;8.00;99.90;;;;;;5073345;28;20251;-68
2023/03/21 06:53:34;;;;;;;12.57;7.60;;;7.90;99.90;;;;;;5073620;28;20258;-68
2023/03/21 06:56:24;;;;;;;10.47;6.40;;;7.80;99.90;;;;;;5073139;28;20225;-68
2023/03/21 06:58:53;;;;;;;12.03;7.40;;;7.90;99.90;;;;;;5073224;28;20664;-69
2023/03/21 07:01:42;;;;;;;8.53;6.43;;;7.90;99.90;;;;;;5073439;28;20197;-69
2023/03/21 07:04:11;;;;;;;9.80;6.60;;;8.10;99.90;;;;;;5074321;28;20629;-69
2023/03/21 07:06:41;;;;;;;9.10;6.40;;;8.10;99.90;;;;;;5074519;28;20270;-68
2023/03/21 07:09:10;;;;;;;9.63;6.47;;;8.10;99.90;;;;;;5073207;28;20205;-68
2023/03/21 07:11:38;;;;;;;6.67;5.13;;;8.30;99.90;;;;;;5073385;28;20292;-68
2023/03/21 07:14:07;;;;;;;11.83;6.43;;;8.30;99.90;;;;;;5073045;28;20292;-68
2023/03/21 07:16:36;;;;;;;8.90;5.83;;;8.40;99.90;;;;;;5073209;28;20240;-67
2023/03/21 07:19:06;;;;;;;9.23;6.27;;;9.00;99.90;;;;;;5074544;28;20543;-68
2023/03/21 07:21:35;;;;;;;12.27;7.50;;;8.80;99.90;;;;;;5074462;28;20631;-68
2023/03/21 07:24:04;;;;;;;7.33;6.13;;;8.90;99.90;;;;;;5074337;28;20191;-68
2023/03/21 07:26:33;;;;;;;9.80;6.00;;;8.90;99.90;;;;;;5072720;28;20234;-68
2023/03/21 07:29:05;;;;;;;8.13;5.73;;;8.90;99.90;;;;;;5072848;28;20198;-68
2023/03/21 07:31:34;;;;;;;9.33;5.90;;;8.80;99.90;;;;;;5073813;28;20198;-68
2023/03/21 07:34:03;;;;;;;16.50;7.67;;;8.70;99.90;;;;;;5074013;28;20194;-68
2023/03/21 07:36:37;;;;;;;10.50;8.07;;;8.80;99.90;;;;;;5072549;28;20198;-68
2023/03/21 07:39:07;;;;;;;11.30;6.97;;;9.00;99.90;;;;;;5072636;28;20216;-68
2023/03/21 07:41:37;;;;;;;9.47;7.10;;;9.00;99.90;;;;;;5072709;28;20207;-69
2023/03/21 07:44:24;;;;;;;12.67;6.70;;;9.10;99.90;;;;;;5072467;28;20242;-68
2023/03/21 07:47:02;;;;;;;10.83;5.63;;;9.10;99.90;;;;;;5072365;28;20193;-67
2023/03/21 07:49:31;;;;;;;10.60;5.83;;;9.10;99.90;;;;;;5072197;28;20229;-67
2023/03/21 07:52:02;;;;;;;7.63;5.37;;;9.10;99.90;;;;;;5073636;28;20187;-68
2023/03/21 07:54:32;;;;;;;9.40;6.23;;;9.20;99.90;;;;;;5072486;28;20205;-67
2023/03/21 07:57:00;;;;;;;10.10;6.77;;;9.00;99.90;;;;;;5073302;28;20290;-68
2023/03/21 07:59:29;;;;;;;6.57;5.33;;;9.20;99.90;;;;;;5073436;28;20285;-70
2023/03/21 08:02:00;;;;;;;15.10;6.47;;;9.20;99.90;;;;;;5070797;28;20203;-68
2023/03/21 08:04:29;;;;;;;7.30;5.50;;;9.40;99.90;;;;;;5053564;28;20273;-67
2023/03/21 08:06:58;;;;;;;8.07;6.50;;;9.40;99.70;;;;;;5053566;28;20691;-69
2023/03/21 08:09:28;;;;;;;8.97;5.93;;;9.20;99.90;;;;;;5061145;28;20560;-66
2023/03/21 08:11:58;;;;;;;10.83;5.97;;;9.20;99.90;;;;;;5073641;28;20192;-69
2023/03/21 08:14:27;;;;;;;8.90;7.13;;;9.20;99.90;;;;;;5073443;28;20196;-67
2023/03/21 08:16:56;;;;;;;12.67;9.17;;;9.20;99.90;;;;;;5072885;28;20215;-67
2023/03/21 08:19:25;;;;;;;8.20;5.53;;;9.50;99.90;;;;;;5073298;28;20195;-69
2023/03/21 08:21:54;;;;;;;12.37;8.40;;;9.60;97.50;;;;;;5060662;28;20234;-67
2023/03/21 08:24:23;;;;;;;8.83;5.53;;;9.70;98.00;;;;;;5062059;28;20275;-67
2023/03/21 08:26:53;;;;;;;10.50;6.90;;;9.60;97.40;;;;;;5053220;28;20235;-68
2023/03/21 08:29:23;;;;;;;6.90;5.40;;;9.70;98.60;;;;;;5056141;28;20202;-66
2023/03/21 08:31:52;;;;;;;8.20;5.53;;;9.90;97.60;;;;;;5063837;28;20222;-68
2023/03/21 08:34:21;;;;;;;9.63;6.23;;;10.10;96.70;;;;;;5064875;28;20556;-66
2023/03/21 08:36:50;;;;;;;8.63;6.23;;;10.20;96.00;;;;;;5054820;28;20203;-69
2023/03/21 08:39:20;;;;;;;7.83;5.00;;;10.30;93.40;;;;;;5063942;28;20562;-67
2023/03/21 08:41:49;;;;;;;8.47;5.00;;;10.10;93.20;;;;;;5072804;28;20199;-67
2023/03/21 08:44:20;;;;;;;12.23;5.37;;;9.70;94.90;;;;;;5072980;28;20568;-66
2023/03/21 08:46:49;;;;;;;5.43;4.70;;;9.70;95.60;;;;;;5072342;28;20305;-65
2023/03/21 08:49:18;;;;;;;8.23;5.47;;;9.80;94.90;;;;;;5072885;28;20617;-65
2023/03/21 08:51:47;;;;;;;20.10;12.53;;;9.90;95.40;;;;;;5072403;28;20619;-65
2023/03/21 08:54:20;;;;;;;7.40;5.53;;;9.90;96.10;;;;;;5070016;28;20565;-65
2023/03/21 08:56:49;;;;;;;9.13;7.83;;;9.80;95.60;;;;;;5066792;28;20202;-67
2023/03/21 08:59:19;;;;;;;7.40;5.50;;;9.90;94.10;;;;;;5072054;28;20191;-65
2023/03/21 09:01:48;;;;;;;6.17;4.53;;;10.00;93.80;;;;;;5072010;28;20222;-65
2023/03/21 09:04:17;;;;;;;7.47;4.80;;;10.00;92.50;;;;;;5071864;28;20322;-65
2023/03/21 09:06:48;;;;;;;6.37;5.40;;;10.20;93.70;;;;;;5071741;28;20269;-66
2023/03/21 09:09:16;;;;;;;7.87;5.47;;;10.70;93.70;;;;;;5065651;28;20204;-69
2023/03/21 09:11:45;;;;;;;10.13;5.00;;;10.80;88.70;;;;;;5055519;28;20202;-70
2023/03/21 09:14:14;;;;;;;9.20;5.80;;;10.50;88.10;;;;;;5058767;28;20667;-65
2023/03/21 09:16:44;;;;;;;12.10;7.43;;;10.40;91.50;;;;;;5071881;28;20219;-63
2023/03/21 09:19:14;;;;;;;7.67;5.20;;;10.40;92.10;;;;;;5091779;28;20751;-66
2023/03/21 09:21:42;;;;;;;8.80;6.40;;;10.20;91.60;;;;;;5091784;28;20558;-68
2023/03/21 09:24:12;;;;;;;10.63;5.50;;;10.10;93.10;;;;;;5091845;28;20282;-67
2023/03/21 09:26:42;;;;;;;8.03;5.33;;;9.90;93.10;;;;;;5091483;28;20330;-67
2023/03/21 09:29:11;;;;;;;6.90;5.43;;;10.00;93.70;;;;;;5092014;28;20210;-69
2023/03/21 09:31:42;;;;;;;7.57;5.53;;;10.20;93.90;;;;;;5091871;28;20199;-66
2023/03/21 09:34:14;;;;;;;6.57;5.13;;;10.40;91.60;;;;;;5088525;28;20198;-68
2023/03/21 09:36:47;;;;;;;6.27;5.33;;;10.60;90.70;;;;;;5082136;28;20206;-67
2023/03/21 09:39:16;;;;;;;7.97;5.97;;;10.80;89.50;;;;;;5109553;28;20199;-69
2023/03/21 09:41:59;;;;;;;5.43;4.47;;;10.80;90.40;;;;;;5111971;28;20672;-67
2023/03/21 09:44:40;;;;;;;6.87;4.93;;;10.90;86.00;;;;;;5112051;28;20672;-66
2023/03/21 09:47:19;;;;;;;13.50;8.50;;;10.90;87.20;;;;;;5111906;28;20227;-64
2023/03/21 09:49:53;;;;;;;8.20;5.23;;;11.80;82.60;;;;;;5112069;28;20203;-64
2023/03/21 09:52:38;;;;;;;4.50;4.00;;;13.10;72.00;;;;;;5112108;28;20195;-65
2023/03/21 09:55:18;;;;;;;8.43;4.70;;;12.60;68.00;;;;;;5112125;28;20270;-68
2023/03/21 09:57:50;;;;;;;5.07;4.63;;;12.00;70.60;;;;;;5111899;28;20608;-66
2023/03/21 10:00:26;;;;;;;8.07;4.60;;;11.90;74.40;;;;;;5112098;28;20198;-67
2023/03/21 10:02:58;;;;;;;9.53;6.30;;;11.70;76.60;;;;;;5111608;28;20234;-68
2023/03/21 10:05:33;;;;;;;5.20;4.33;;;11.60;78.10;;;;;;5111759;28;20226;-65
2023/03/21 10:08:06;;;;;;;7.73;5.37;;;11.30;76.80;;;;;;5111743;28;20229;-66
2023/03/21 10:10:40;;;;;;;8.17;6.30;;;11.10;78.80;;;;;;5112036;28;20194;-66
2023/03/21 10:13:15;;;;;;;4.87;4.10;;;11.10;78.50;;;;;;5100420;28;20559;-66
2023/03/21 10:15:44;;;;;;;7.43;5.03;;;11.00;79.00;;;;;;5077745;28;20226;-66
2023/03/21 10:18:18;;;;;;;6.97;5.00;;;10.90;81.80;;;;;;5074793;28;20212;-67
2023/03/21 10:20:49;;;;;;;7.07;5.00;;;10.80;84.40;;;;;;5095449;28;20199;-69
2023/03/21 10:23:20;;;;;;;7.13;5.93;;;10.80;84.10;;;;;;5095478;28;20609;-67
2023/03/21 10:25:52;;;;;;;7.87;4.03;;;12.30;81.50;;;;;;5082368;28;20235;-70
2023/03/21 10:28:25;;;;;;;9.17;5.80;;;12.90;69.70;;;;;;5075014;28;20316;-67
2023/03/21 10:30:56;;;;;;;5.33;4.53;;;12.90;68.10;;;;;;5075187;28;20205;-71
2023/03/21 10:33:27;;;;;;;4.77;3.50;;;12.40;68.70;;;;;;5074811;28;20196;-66
2023/03/21 10:36:02;;;;;;;7.00;4.97;;;12.00;70.40;;;;;;5075154;28;20197;-70
2023/03/21 10:38:31;;;;;;;5.33;3.80;;;12.00;71.00;;;;;;5074981;28;20666;-68
2023/03/21 10:40:59;;;;;;;5.20;3.83;;;11.90;70.60;;;;;;5079032;28;20199;-69
2023/03/21 10:43:37;;;;;;;5.73;3.90;;;11.70;72.10;;;;;;5094831;28;20537;-67
2023/03/21 10:46:12;;;;;;;5.60;4.63;;;11.60;72.30;;;;;;5095079;28;20195;-66
2023/03/21 10:48:44;;;;;;;5.80;4.30;;;11.50;73.50;;;;;;5094897;28;20200;-69
2023/03/21 10:51:20;;;;;;;5.57;4.10;;;11.20;74.00;;;;;;5094838;28;20646;-68
2023/03/21 10:53:53;;;;;;;5.47;4.50;;;11.30;74.50;;;;;;5094942;28;20221;-67
2023/03/21 10:56:27;;;;;;;5.63;4.00;;;11.50;75.20;;;;;;5094859;28;20223;-68
2023/03/21 10:58:58;;;;;;;3.70;3.37;;;11.30;75.20;;;;;;5094901;28;20610;-65
2023/03/21 11:01:31;;;;;;;7.00;4.17;;;11.50;71.10;;;;;;5094759;28;20253;-68
2023/03/21 11:04:05;;;;;;;4.73;4.10;;;11.70;71.30;;;;;;5094461;28;20764;-69
2023/03/21 11:06:39;;;;;;;8.33;3.50;;;11.80;72.00;;;;;;5094594;28;20199;-66
2023/03/21 11:09:12;;;;;;;8.07;4.00;;;11.90;68.40;;;;;;5094634;28;20195;-69
2023/03/21 11:11:48;;;;;;;6.03;3.50;;;13.50;64.70;;;;;;5094536;28;20245;-66
2023/03/21 11:14:28;;;;;;;6.37;3.73;;;13.60;60.20;;;;;;5094589;28;20208;-68
2023/03/21 11:16:57;;;;;;;5.57;3.03;;;13.20;60.40;;;;;;5094482;28;20196;-68
2023/03/21 11:19:31;;;;;;;4.07;2.73;;;12.80;61.10;;;;;;5094358;28;20562;-70
2023/03/21 11:22:07;;;;;;;7.60;2.97;;;12.40;61.40;;;;;;5094336;28;20629;-68
2023/03/21 11:24:36;;;;;;;3.87;3.40;;;12.40;62.70;;;;;;5094541;28;20657;-65
2023/03/21 11:27:07;;;;;;;4.43;3.03;;;12.40;62.60;;;;;;5094152;28;20223;-64
2023/03/21 11:29:40;;;;;;;7.53;4.13;;;12.20;63.30;;;;;;5094220;28;20547;-65
2023/03/21 11:32:13;;;;;;;5.47;3.53;;;12.10;64.20;;;;;;5126607;27;20244;-65
2023/03/21 11:34:47;;;;;;;7.23;3.67;;;11.90;65.90;;;;;;5135163;27;20224;-68
2023/03/21 11:37:26;;;;;;;6.33;4.00;;;11.80;66.80;;;;;;5100507;28;20284;-67
2023/03/21 11:39:57;;;;;;;4.67;3.60;;;11.90;67.90;;;;;;5111204;28;20801;-67
2023/03/21 11:42:29;;;;;;;5.10;3.73;;;12.90;65.90;;;;;;5093906;28;20208;-69
2023/03/21 11:45:11;;;;;;;6.20;4.50;;;13.50;61.90;;;;;;5093918;28;20223;-69
2023/03/21 11:47:40;;;;;;;5.53;4.63;;;13.50;60.20;;;;;;5093917;28;20349;-67
2023/03/21 11:50:19;;;;;;;7.77;5.23;;;13.10;60.40;;;;;;5111567;28;20192;-68
2023/03/21 11:53:26;;;;;;;5.50;3.70;;;13.50;61.20;;;;;;5113968;28;20307;-68
2023/03/21 11:56:16;;;;;;;7.63;4.70;;;13.20;59.70;;;;;;5111652;28;20612;-69
2023/03/21 11:59:01;;;;;;;6.67;5.53;;;13.30;60.40;;;;;;5113819;28;20266;-69
2023/03/21 12:01:37;;;;;;;6.73;3.80;;;13.50;59.60;;;;;;5113174;28;20287;-68
2023/03/21 12:04:39;;;;;;;4.27;3.83;;;13.00;59.00;;;;;;5093280;28;20232;-67
2023/03/21 12:07:20;;;;;;;8.03;4.27;;;12.80;59.90;;;;;;5011338;28;20213;-69
2023/03/21 12:10:03;;;;;;;6.03;4.93;;;13.00;60.80;;;;;;5014291;28;20266;-68
2023/03/21 12:12:42;;;;;;;7.23;4.77;;;13.70;59.10;;;;;;5019019;28;20340;-69
2023/03/21 12:15:22;;;;;;;6.03;4.03;;;13.60;57.60;;;;;;5030889;28;20696;-68
2023/03/21 12:17:59;;;;;;;5.33;4.17;;;13.30;56.80;;;;;;5030607;28;20238;-70
2023/03/21 12:20:39;;;;;;;4.93;4.20;;;13.50;57.10;;;;;;5030663;28;20543;-69
2023/03/21 12:23:28;;;;;;;4.57;3.57;;;14.70;55.00;;;;;;5030726;28;20277;-68
2023/03/21 12:26:10;;;;;;;5.73;3.10;;;16.00;51.10;;;;;;5013363;28;20215;-68
2023/03/21 12:28:47;;;;;;;5.87;3.47;;;16.80;49.20;;;;;;5010588;28;20241;-69
2023/03/21 12:31:25;;;;;;;4.30;3.50;;;17.00;49.00;;;;;;5015474;28;20258;-69
2023/03/21 12:34:06;;;;;;;3.33;2.83;;;18.00;47.40;;;;;;5030574;28;20688;-69
2023/03/21 12:36:51;;;;;;;3.87;3.33;;;17.50;45.20;;;;;;5030043;28;20261;-67
2023/03/21 12:39:28;;;;;;;4.17;3.20;;;16.30;47.90;;;;;;5012356;28;20214;-68
2023/03/21 12:42:15;;;;;;;7.47;3.60;;;20.00;45.80;;;;;;5010633;28;20210;-68
2023/03/21 12:44:52;;;;;;;5.10;3.50;;;22.10;40.50;;;;;;5105234;28;20259;-68
2023/03/21 12:47:24;;;;;;;5.10;3.80;;;22.80;38.80;;;;;;5097013;28;20192;-68
2023/03/21 12:50:00;;;;;;;4.97;4.07;;;24.10;37.40;;;;;;5106484;28;20194;-68
2023/03/21 12:52:32;;;;;;;6.73;4.47;;;25.30;35.70;;;;;;5102001;28;20205;-67
2023/03/21 12:55:06;;;;;;;5.53;4.03;;;24.70;35.80;;;;;;5096808;28;20291;-68
2023/03/21 12:57:40;;;;;;;9.93;4.33;;;24.90;35.70;;;;;;5094684;28;20257;-66
2023/03/21 13:00:22;;;;;;;7.37;4.37;;;25.80;35.30;;;;;;5092669;28;20241;-66
2023/03/21 13:02:56;;;;;;;5.13;4.63;;;27.80;33.00;;;;;;5099570;28;20355;-67
2023/03/21 13:05:30;;;;;;;5.50;5.00;;;28.40;31.20;;;;;;5092134;28;20188;-69
2023/03/21 13:08:05;;;;;;;5.50;5.00;;;27.30;31.70;;;;;;5097802;28;20200;-70
2023/03/21 13:10:34;;;;;;;23.80;18.50;;;25.70;33.60;;;;;;5112494;28;20203;-70
2023/03/21 13:13:15;;;;;;;7.90;6.20;;;26.70;34.10;;;;;;5112271;28;20264;-68
2023/03/21 13:15:59;;;;;;;11.73;8.33;;;27.60;31.80;;;;;;5095921;28;20261;-69
2023/03/21 13:18:36;;;;;;;23.97;18.83;;;28.90;30.90;;;;;;5096530;28;20216;-69
2023/03/21 13:21:13;;;;;;;33.90;26.17;;;29.80;30.20;;;;;;5107846;28;20665;-68
2023/03/21 13:23:58;;;;;;;13.60;10.53;;;30.70;30.30;;;;;;5112257;28;20572;-69
2023/03/21 13:26:38;;;;;;;6.03;5.43;;;30.50;29.20;;;;;;5112256;28;20199;-68